Time;durP1;ratioP1;P1;durP2;ratioP2;P2;SDS_P1;SDS_P2;PMS_P1;PMS_P2;Temp;Humidity;BMP_temperature;BMP_pressure;BME280_temperature;BME280_humidity;BME280_pressure;Samples;Min_cycle;Max_cycle;Signal;HPM_P1;HPM_P2
2022/11/15 00:01:44;;;;;;;73.15;26.00;;;;;;;6.00;100.00;100935.97;7382986;19;20010;-71
2022/11/15 00:04:23;;;;;;;70.95;27.13;;;;;;;5.99;100.00;100936.81;7381024;19;20035;-71
2022/11/15 00:06:59;;;;;;;74.82;27.67;;;;;;;6.02;100.00;100936.03;7381476;19;20114;-70
2022/11/15 00:09:54;;;;;;;72.68;26.30;;;;;;;6.06;100.00;100930.97;7382607;19;20354;-70
2022/11/15 00:12:40;;;;;;;76.82;26.17;;;;;;;6.07;100.00;100935.34;7382373;19;20018;-71
2022/11/15 00:15:33;;;;;;;71.03;24.77;;;;;;;6.11;100.00;100936.34;7378091;19;20021;-70
2022/11/15 00:18:31;;;;;;;77.25;27.17;;;;;;;6.12;100.00;100931.19;7380176;19;20025;-71
2022/11/15 00:21:28;;;;;;;64.75;24.98;;;;;;;6.14;100.00;100932.13;7379501;19;20051;-71
2022/11/15 00:27:00;;;;;;;66.30;23.73;;;;;;;6.16;100.00;100925.25;7383273;19;20036;-71
2022/11/15 00:29:54;;;;;;;71.72;25.38;;;;;;;6.18;100.00;100923.56;7380534;19;20036;-72
2022/11/15 00:32:41;;;;;;;76.25;26.10;;;;;;;6.26;100.00;100921.16;7379903;19;20132;-70
2022/11/15 00:39:01;;;;;;;69.15;25.02;;;;;;;6.26;100.00;100915.09;7375030;19;20006;-70
2022/11/15 00:41:57;;;;;;;78.07;25.00;;;;;;;6.26;100.00;100908.16;7380366;19;20329;-71
2022/11/15 00:47:36;;;;;;;84.53;26.92;;;;;;;6.30;100.00;100906.53;7378671;19;20019;-71
2022/11/15 00:50:28;;;;;;;83.05;28.83;;;;;;;6.32;100.00;100897.94;7375046;19;20328;-70
2022/11/15 00:53:10;;;;;;;81.45;29.15;;;;;;;6.35;100.00;100897.13;7373243;19;20485;-71
2022/11/15 00:56:24;;;;;;;90.68;30.50;;;;;;;6.37;100.00;100909.38;7372246;19;20010;-71
2022/11/15 00:59:16;;;;;;;83.95;29.13;;;;;;;6.38;100.00;100905.94;7379516;19;20014;-70
2022/11/15 01:02:02;;;;;;;78.50;26.70;;;;;;;6.44;100.00;100900.03;7381650;19;20027;-70
2022/11/15 01:04:51;;;;;;;84.20;28.77;;;;;;;6.47;100.00;100902.72;7378918;19;20643;-70
2022/11/15 01:07:40;;;;;;;87.10;27.48;;;;;;;6.50;100.00;100890.69;7377908;19;20047;-70
2022/11/15 01:10:26;;;;;;;71.55;26.35;;;;;;;6.53;100.00;100887.28;7377172;19;20019;-70
2022/11/15 01:13:05;;;;;;;84.38;29.35;;;;;;;6.54;100.00;100897.75;7376588;19;20487;-71
2022/11/15 01:16:16;;;;;;;94.28;31.42;;;;;;;6.59;100.00;100884.88;7377043;19;20030;-70
2022/11/15 01:19:10;;;;;;;76.88;28.63;;;;;;;6.61;100.00;100882.31;7378432;19;20017;-72
2022/11/15 01:21:48;;;;;;;88.25;28.25;;;;;;;6.61;100.00;100879.69;7379728;19;20026;-71
2022/11/15 01:24:22;;;;;;;100.22;31.67;;;;;;;6.62;100.00;100877.13;7379812;19;20010;-78
2022/11/15 01:26:51;;;;;;;86.50;29.05;;;;;;;6.65;100.00;100879.84;7378864;19;20110;-79
2022/11/15 01:29:21;;;;;;;83.40;30.15;;;;;;;6.66;100.00;100876.38;7380423;19;20078;-79
2022/11/15 01:31:55;;;;;;;75.47;28.20;;;;;;;6.72;100.00;100871.34;7376080;19;20014;-79
2022/11/15 01:34:25;;;;;;;79.70;28.35;;;;;;;6.73;100.00;100865.31;7378650;19;20015;-79
2022/11/15 01:36:55;;;;;;;101.78;30.85;;;;;;;6.77;100.00;100863.66;7377305;19;20021;-79
2022/11/15 01:39:24;;;;;;;88.75;29.55;;;;;;;6.79;100.00;100859.38;7379763;19;20014;-77
2022/11/15 01:41:54;;;;;;;97.60;32.40;;;;;;;6.85;100.00;100865.66;7378024;19;20025;-79
2022/11/15 01:44:43;;;;;;;93.88;31.92;;;;;;;6.95;100.00;100852.88;7375000;19;20018;-78
2022/11/15 01:47:19;;;;;;;91.60;31.50;;;;;;;6.94;100.00;100854.59;7371667;19;20038;-79
2022/11/15 01:49:56;;;;;;;80.05;29.90;;;;;;;6.99;100.00;100852.13;7373326;19;20074;-79
2022/11/15 01:52:29;;;;;;;91.10;32.17;;;;;;;7.01;100.00;100842.63;7375499;19;20054;-78
2022/11/15 01:55:03;;;;;;;88.75;30.75;;;;;;;7.00;100.00;100843.47;7376162;19;20124;-79
2022/11/15 01:57:33;;;;;;;88.35;30.10;;;;;;;7.05;100.00;100837.53;7374675;19;20021;-78
2022/11/15 02:00:03;;;;;;;88.95;31.30;;;;;;;7.07;100.00;100845.41;7374753;19;20609;-79
2022/11/15 02:02:39;;;;;;;92.80;30.25;;;;;;;7.13;100.00;100838.63;7379319;19;20480;-78
2022/11/15 02:05:10;;;;;;;100.10;36.67;;;;;;;7.19;100.00;100832.69;7379548;19;20006;-78
2022/11/15 02:07:40;;;;;;;88.38;31.42;;;;;;;7.24;100.00;100825.00;7377941;19;20010;-78
2022/11/15 02:10:12;;;;;;;92.35;32.75;;;;;;;7.28;100.00;100824.22;7380693;19;20014;-80
2022/11/15 02:12:42;;;;;;;91.20;31.30;;;;;;;7.34;100.00;100821.75;7371591;19;20143;-78
2022/11/15 02:15:13;;;;;;;92.05;33.90;;;;;;;7.34;100.00;100821.75;7375701;19;20018;-79
2022/11/15 02:18:00;;;;;;;78.90;31.45;;;;;;;7.43;100.00;100809.81;7370167;19;20399;-79
2022/11/15 02:20:49;;;;;;;93.93;32.70;;;;;;;7.43;100.00;100812.44;7371343;19;20003;-78
2022/11/15 02:23:44;;;;;;;88.20;31.67;;;;;;;7.50;100.00;100809.13;7375035;19;20010;-79
2022/11/15 02:26:43;;;;;;;99.22;32.53;;;;;;;7.51;100.00;100804.78;7372584;19;20025;-79
2022/11/15 02:29:16;;;;;;;82.40;30.80;;;;;;;7.58;100.00;100805.84;7372193;19;20021;-79
2022/11/15 02:31:54;;;;;;;96.18;34.15;;;;;;;7.64;100.00;100795.53;7372257;19;20018;-79
2022/11/15 02:34:36;;;;;;;88.93;30.25;;;;;;;7.64;100.00;100796.41;7374495;19;20011;-79
2022/11/15 02:37:14;;;;;;;104.55;35.70;;;;;;;7.71;100.00;100787.91;7372250;19;20033;-79
2022/11/15 02:39:52;;;;;;;90.85;31.55;;;;;;;7.72;100.00;100781.81;7374378;19;20742;-79
2022/11/15 02:45:16;;;;;;;89.47;31.02;;;;;;;7.80;100.00;100776.78;7374483;19;20018;-78
2022/11/15 02:47:52;;;;;;;97.68;31.67;;;;;;;7.83;100.00;100785.56;7376019;19;20014;-79
2022/11/15 02:50:26;;;;;;;82.30;30.90;;;;;;;7.87;100.00;100783.91;7372999;19;20741;-79
2022/11/15 02:52:56;;;;;;;80.68;30.65;;;;;;;7.92;100.00;100787.53;7372462;19;20018;-78
2022/11/15 02:55:31;;;;;;;86.93;31.48;;;;;;;7.97;100.00;100779.78;7376452;19;20510;-78
2022/11/15 02:58:19;;;;;;;91.70;34.83;;;;;;;8.12;100.00;100774.91;7372021;19;20011;-79
2022/11/15 03:00:58;;;;;;;70.68;29.55;;;;;;;8.17;100.00;100775.91;7374718;19;20050;-77
2022/11/15 03:03:51;;;;;;;69.78;28.10;;;;;;;8.25;100.00;100770.84;7377198;19;20010;-78
2022/11/15 03:06:30;;;;;;;80.22;30.25;;;;;;;8.26;100.00;100768.25;7366644;19;20904;-78
2022/11/15 03:09:06;;;;;;;76.63;29.40;;;;;;;8.39;100.00;100775.50;7378425;19;20098;-79
2022/11/15 03:11:40;;;;;;;84.60;32.58;;;;;;;8.53;100.00;100773.19;7373300;19;20028;-78
2022/11/15 03:14:20;;;;;;;79.55;30.08;;;;;;;8.60;100.00;100768.97;7373839;19;20015;-78
2022/11/15 03:16:57;;;;;;;72.15;27.15;;;;;;;8.62;100.00;100773.38;7372506;19;20018;-77
2022/11/15 03:19:36;;;;;;;71.75;28.17;;;;;;;8.73;100.00;100761.38;7370015;19;20010;-77
2022/11/15 03:22:09;;;;;;;68.07;28.65;;;;;;;8.70;100.00;100756.09;7374783;19;20014;-77
2022/11/15 03:24:40;;;;;;;68.55;30.15;;;;;;;8.83;100.00;100762.44;7376049;19;20030;-78
2022/11/15 03:27:12;;;;;;;70.80;27.58;;;;;;;8.82;100.00;100761.56;7374117;19;20014;-79
2022/11/15 03:29:45;;;;;;;69.93;27.70;;;;;;;8.85;100.00;100761.63;7374540;19;20019;-78
2022/11/15 03:32:19;;;;;;;60.05;26.08;;;;;;;8.90;100.00;100752.97;7370372;19;20011;-78
2022/11/15 03:34:55;;;;;;;59.75;24.88;;;;;;;8.87;100.00;100760.78;7372776;19;20010;-78
2022/11/15 03:37:32;;;;;;;54.95;24.98;;;;;;;8.89;100.00;100757.34;7370723;19;20006;-77
2022/11/15 03:40:02;;;;;;;55.80;23.25;;;;;;;9.00;100.00;100761.03;7368817;19;20017;-79
2022/11/15 03:42:38;;;;;;;60.75;26.52;;;;;;;9.06;100.00;100752.41;7372748;19;20018;-78
2022/11/15 03:45:18;;;;;;;51.03;23.70;;;;;;;9.06;100.00;100762.88;7371977;19;20017;-77
2022/11/15 03:47:51;;;;;;;57.90;22.25;;;;;;;9.06;100.00;100765.50;7372612;19;20014;-78
2022/11/15 03:50:26;;;;;;;49.30;23.52;;;;;;;9.15;100.00;100776.13;7373805;19;20027;-81
2022/11/15 03:52:57;;;;;;;48.60;21.25;;;;;;;9.18;100.00;100773.56;7371493;19;20015;-79
2022/11/15 03:55:26;;;;;;;53.50;23.17;;;;;;;9.17;100.00;100770.06;7372356;19;20478;-77
2022/11/15 03:58:01;;;;;;;52.83;20.83;;;;;;;9.17;100.00;100763.94;7372816;19;20487;-78
2022/11/15 04:00:41;;;;;;;47.15;20.75;;;;;;;9.16;100.00;100756.94;7372979;19;20279;-71
2022/11/15 04:03:23;;;;;;;51.50;20.93;;;;;;;9.11;100.00;100756.00;7369264;19;20416;-71
2022/11/15 04:06:02;;;;;;;43.42;18.75;;;;;;;9.18;100.00;100755.25;7370790;19;20014;-71
2022/11/15 04:08:37;;;;;;;44.15;20.13;;;;;;;9.15;100.00;100757.81;7371060;19;20014;-71
2022/11/15 04:11:30;;;;;;;44.15;19.88;;;;;;;9.21;100.00;100762.25;7368963;19;20022;-71
2022/11/15 04:14:13;;;;;;;45.17;18.15;;;;;;;9.20;100.00;100757.88;7373049;19;20022;-71
2022/11/15 04:16:47;;;;;;;40.30;17.63;;;;;;;9.23;100.00;100753.59;7369919;19;20014;-71
2022/11/15 04:25:12;;;;;;;39.13;16.25;;;;;;;9.26;100.00;100740.56;7371685;19;20044;-71
2022/11/15 04:28:11;;;;;;;35.88;16.92;;;;;;;9.31;100.00;100731.03;7371433;19;20011;-71
2022/11/15 04:30:57;;;;;;;38.47;16.48;;;;;;;9.32;100.00;100732.81;7373034;19;20030;-71
2022/11/15 04:39:23;;;;;;;35.90;16.17;;;;;;;9.31;100.00;100727.56;7377075;19;20017;-72
2022/11/15 04:42:06;;;;;;;32.28;15.77;;;;;;;9.33;100.00;100734.56;7381840;19;20066;-72
2022/11/15 04:44:41;;;;;;;35.15;15.20;;;;;;;9.34;100.00;100744.19;7378056;19;20010;-72
2022/11/15 04:47:22;;;;;;;35.75;16.58;;;;;;;9.37;100.00;100740.69;7379161;19;20057;-72
2022/11/15 04:50:13;;;;;;;33.33;14.90;;;;;;;9.36;100.00;100745.06;7372907;19;20070;-72
2022/11/15 04:53:03;;;;;;;32.17;14.40;;;;;;;9.34;100.00;100757.28;7373431;19;20803;-72
2022/11/15 04:55:39;;;;;;;33.05;15.88;;;;;;;9.34;100.00;100757.28;7378582;19;20020;-72
2022/11/15 04:58:24;;;;;;;31.58;15.48;;;;;;;9.42;100.00;100760.88;7376893;19;20042;-72
2022/11/15 05:01:13;;;;;;;34.03;15.52;;;;;;;9.41;100.00;100764.34;7376774;19;20014;-72
2022/11/15 05:09:30;;;;;;;37.25;16.05;;;;;;;9.36;100.00;100781.69;7381821;19;20014;-72
2022/11/15 05:12:32;;;;;;;34.95;15.13;;;;;;;9.38;100.00;100776.50;7378431;19;20579;-72
2022/11/15 05:15:21;;;;;;;29.08;13.68;;;;;;;9.38;100.00;100771.25;7380205;19;20021;-72
2022/11/15 05:20:55;;;;;;;27.77;13.70;;;;;;;9.47;100.00;100767.06;7376958;19;20014;-73
2022/11/15 05:23:45;;;;;;;26.02;12.70;;;;;;;9.44;100.00;100772.25;7380783;19;20034;-71
2022/11/15 05:26:32;;;;;;;30.10;13.57;;;;;;;9.47;100.00;100761.81;7376940;19;20021;-72
2022/11/15 05:29:24;;;;;;;26.38;12.82;;;;;;;9.45;100.00;100767.88;7379715;19;20044;-72
2022/11/15 05:32:22;;;;;;;28.55;13.95;;;;;;;9.50;100.00;100764.50;7381193;19;20021;-72
2022/11/15 05:35:00;;;;;;;32.95;14.32;;;;;;;9.50;100.00;100766.22;7375746;19;20098;-72
2022/11/15 05:40:36;;;;;;;24.73;13.68;;;;;;;9.56;100.00;100765.44;7377451;19;20491;-72
2022/11/15 05:46:20;;;;;;;22.38;13.52;;;;;;;9.45;100.00;100760.91;7375968;19;20019;-71
2022/11/15 05:49:08;;;;;;;24.63;13.93;;;;;;;9.41;100.00;100769.56;7374937;19;20018;-72
2022/11/15 05:52:18;;;;;;;31.80;12.70;;;;;;;9.32;100.00;100764.22;7374120;19;20003;-72
2022/11/15 05:55:04;;;;;;;22.60;10.70;;;;;;;9.33;100.00;100762.47;7376072;19;20482;-72
2022/11/15 05:57:49;;;;;;;21.85;10.70;;;;;;;9.27;100.00;100771.09;7378516;19;20110;-73
2022/11/15 06:00:40;;;;;;;23.35;10.90;;;;;;;9.28;100.00;100778.09;7377551;19;20438;-74
2022/11/15 06:03:33;;;;;;;19.33;9.70;;;;;;;9.28;100.00;100783.34;7370806;19;20570;-73
2022/11/15 06:06:19;;;;;;;26.92;10.73;;;;;;;9.21;100.00;100791.06;7372055;19;20025;-72
2022/11/15 06:09:11;;;;;;;16.55;9.18;;;;;;;9.21;100.00;100786.69;7375228;19;20019;-72
2022/11/15 06:11:49;;;;;;;17.83;8.65;;;;;;;9.16;100.00;100793.59;7375785;19;20081;-73
2022/11/15 06:14:38;;;;;;;;;;;;;;;;;;;;;
2022/11/15 06:17:21;;;;;;;18.67;7.93;;;;;;;9.18;100.00;100791.88;7376468;19;20022;-74
2022/11/15 06:23:06;;;;;;;;;;;;;;;9.05;100.00;100795.13;7374447;19;20018;-71
2022/11/15 06:25:48;;;;;;;23.40;8.88;;;;;;;9.01;100.00;100794.19;7374996;19;19915;-72
2022/11/15 06:28:41;;;;;;;20.25;7.78;;;;;;;8.96;100.00;100800.19;7374441;19;20137;-72
2022/11/15 06:31:33;;;;;;;20.20;7.68;;;;;;;8.89;100.00;100795.69;7376736;19;20078;-72
2022/11/15 06:34:08;;;;;;;16.60;7.70;;;;;;;8.84;100.00;100798.22;7374651;19;20010;-72
2022/11/15 06:36:41;;;;;;;16.45;8.07;;;;;;;8.81;100.00;100795.53;7373479;19;20011;-71
2022/11/15 06:39:12;;;;;;;18.15;7.47;;;;;;;8.75;100.00;100791.06;7370376;19;20018;-72
2022/11/15 06:41:55;;;;;;;17.40;8.32;;;;;;;8.88;100.00;100796.53;7375201;19;20039;-72
2022/11/15 06:44:33;;;;;;;13.88;7.07;;;;;;;8.74;100.00;100794.53;7373489;19;20022;-71
2022/11/15 06:47:15;;;;;;;16.10;7.93;;;;;;;8.69;100.00;100803.13;7372893;19;20453;-73
2022/11/15 06:49:48;;;;;;;21.65;8.73;;;;;;;8.66;100.00;100814.41;7372583;19;20074;-72
2022/11/15 06:52:23;;;;;;;17.88;6.95;;;;;;;8.67;100.00;100813.56;7373706;19;20026;-72
2022/11/15 06:54:57;;;;;;;14.07;6.95;;;;;;;8.71;100.00;100822.34;7371191;19;20021;-72
2022/11/15 06:57:51;;;;;;;14.77;6.78;;;;;;;8.70;100.00;100808.38;7376544;19;20035;-72
2022/11/15 07:03:31;;;;;;;19.17;7.15;;;;;;;8.74;100.00;100807.59;7371551;19;20102;-72
2022/11/15 07:06:10;;;;;;;;;;;;;;;8.73;100.00;100810.19;7375735;19;20014;-72
2022/11/15 07:08:55;;;;;;;14.95;6.75;;;;;;;8.76;100.00;100816.34;7374807;19;19946;-72
2022/11/15 07:11:25;;;;;;;21.80;7.07;;;;;;;8.72;100.00;100811.03;7372792;19;20010;-72
2022/11/15 07:16:49;;;;;;;15.32;6.85;;;;;;;8.73;100.00;100807.56;7372308;19;20026;-72
2022/11/15 07:19:30;;;;;;;14.88;5.93;;;;;;;8.73;100.00;100813.69;7374118;19;20007;-72
2022/11/15 07:22:01;;;;;;;13.88;5.95;;;;;;;8.69;100.00;100818.81;7371644;19;20015;-73
2022/11/15 07:24:40;;;;;;;16.38;6.95;;;;;;;8.78;100.00;100817.28;7370793;19;20271;-72
2022/11/15 07:27:30;;;;;;;16.17;6.68;;;;;;;8.82;100.00;100819.09;7373561;19;20508;-72
2022/11/15 07:30:03;;;;;;;11.55;5.35;;;;;;;8.82;100.00;100812.97;7370278;19;20021;-73
2022/11/15 07:32:48;;;;;;;11.05;5.65;;;;;;;8.79;100.00;100808.56;7370712;19;20007;-72
2022/11/15 07:35:34;;;;;;;14.30;6.32;;;;;;;8.77;100.00;100805.03;7369788;19;20014;-72
2022/11/15 07:38:15;;;;;;;16.88;6.05;;;;;;;8.77;100.00;100806.78;7365943;19;20019;-72
2022/11/15 07:41:06;;;;;;;22.05;7.20;;;;;;;8.71;100.00;100810.16;7371298;19;20454;-72
2022/11/15 07:43:41;;;;;;;17.10;6.25;;;;;;;8.75;100.00;100809.38;7373913;19;20441;-72
2022/11/15 07:46:27;;;;;;;12.68;6.25;;;;;;;8.75;100.00;100804.13;7371010;19;20488;-72
2022/11/15 07:49:13;;;;;;;14.13;5.88;;;;;;;8.78;100.00;100795.47;7368842;19;20010;-72
2022/11/15 07:54:54;;;;;;;15.70;5.97;;;;;;;8.69;100.00;100796.16;7366416;19;20370;-73
2022/11/15 07:57:46;;;;;;;13.27;6.05;;;;;;;8.72;100.00;100791.00;7365107;19;20062;-73
2022/11/15 08:00:26;;;;;;;12.90;6.25;;;;;;;8.71;100.00;100791.84;7373865;19;20018;-73
2022/11/15 08:03:10;;;;;;;;;;;;;;;8.69;100.00;100783.09;7374099;19;20413;-72
2022/11/15 08:05:46;;;;;;;12.45;6.13;;;;;;;8.67;100.00;100786.53;7377033;19;19919;-72
2022/11/15 08:11:12;;;;;;;13.25;6.18;;;;;;;8.74;100.00;100778.84;7380551;19;20047;-72
2022/11/15 08:13:51;;;;;;;15.43;6.22;;;;;;;8.85;100.00;100773.81;7380085;19;20502;-71
2022/11/15 08:16:20;;;;;;;14.80;6.63;;;;;;;8.85;100.00;100774.69;7381981;19;20006;-72
2022/11/15 08:18:50;;;;;;;18.58;7.38;;;;;;;8.86;100.00;100780.81;7380762;19;20017;-72
2022/11/15 08:21:22;;;;;;;13.77;6.55;;;;;;;8.88;100.00;100776.50;7379302;19;20018;-72
2022/11/15 08:23:53;;;;;;;15.80;7.03;;;;;;;8.88;100.00;100763.41;7380432;19;20468;-73
2022/11/15 08:26:24;;;;;;;17.42;7.47;;;;;;;8.94;100.00;100770.50;7382070;19;20018;-72
2022/11/15 08:28:56;;;;;;;23.92;7.63;;;;;;;8.96;100.00;100774.03;7382925;19;20023;-73
2022/11/15 08:31:26;;;;;;;17.05;8.02;;;;;;;9.02;100.00;100758.44;7381187;19;20018;-73
2022/11/15 08:33:56;;;;;;;21.48;8.35;;;;;;;9.10;100.00;100767.31;7380463;19;20389;-73
2022/11/15 08:36:25;;;;;;;17.55;7.78;;;;;;;9.03;100.00;100761.09;7381358;19;20010;-73
2022/11/15 08:38:59;;;;;;;17.48;7.63;;;;;;;9.05;100.00;100758.50;7376969;19;20634;-73
2022/11/15 08:41:33;;;;;;;19.23;8.57;;;;;;;9.08;100.00;100753.31;7379170;19;20485;-74
2022/11/15 08:44:06;;;;;;;19.80;8.10;;;;;;;9.11;100.00;100753.38;7383284;19;20006;-73
2022/11/15 08:46:36;;;;;;;15.15;6.75;;;;;;;9.13;100.00;100747.31;7383685;19;20028;-73
2022/11/15 08:49:06;;;;;;;17.05;8.20;;;;;;;9.12;100.00;100748.16;7383680;19;20020;-73
2022/11/15 08:51:36;;;;;;;18.67;8.10;;;;;;;9.15;100.00;100760.44;7381371;19;20030;-74
2022/11/15 08:54:06;;;;;;;16.67;7.28;;;;;;;9.10;100.00;100756.84;7380064;19;20025;-74
2022/11/15 08:56:36;;;;;;;17.75;7.93;;;;;;;9.06;100.00;100749.78;7382261;19;20022;-71
2022/11/15 08:59:09;;;;;;;15.88;7.13;;;;;;;9.09;100.00;100750.72;7382724;19;20495;-73
2022/11/15 09:01:39;;;;;;;16.27;7.43;;;;;;;9.17;100.00;100756.09;7380707;19;20344;-72
2022/11/15 09:04:09;;;;;;;16.35;7.15;;;;;;;9.19;100.00;100759.63;7381692;19;20006;-72
2022/11/15 09:06:41;;;;;;;14.15;6.57;;;;;;;9.28;100.00;100758.91;7380311;19;20078;-72
2022/11/15 09:09:11;;;;;;;14.43;6.32;;;;;;;9.29;100.00;100748.47;7380700;19;20015;-72
2022/11/15 09:11:41;;;;;;;12.88;6.85;;;;;;;9.32;100.00;100753.75;7380597;19;20015;-72
2022/11/15 09:14:14;;;;;;;14.27;5.80;;;;;;;9.37;100.00;100746.81;7379861;19;20507;-73
2022/11/15 09:16:44;;;;;;;14.13;6.32;;;;;;;9.35;100.00;100743.34;7380039;19;20364;-72
2022/11/15 09:19:17;;;;;;;18.58;6.50;;;;;;;9.37;100.00;100743.31;7378475;19;20041;-72
2022/11/15 09:21:51;;;;;;;10.85;5.57;;;;;;;9.50;100.00;100748.78;7375093;19;20017;-72
2022/11/15 09:24:21;;;;;;;14.00;6.70;;;;;;;9.48;100.00;100745.25;7377380;19;20007;-72
2022/11/15 09:26:53;;;;;;;18.02;6.75;;;;;;;9.52;100.00;100752.31;7379769;19;20018;-72
2022/11/15 09:29:28;;;;;;;17.52;6.75;;;;;;;9.61;100.00;100755.94;7381099;19;20514;-72
2022/11/15 09:31:59;;;;;;;12.93;6.32;;;;;;;9.66;100.00;100754.25;7381426;19;20010;-72
2022/11/15 09:34:29;;;;;;;16.00;6.32;;;;;;;9.74;100.00;100753.53;7381805;19;20452;-73
2022/11/15 09:37:02;;;;;;;15.85;6.10;;;;;;;9.82;100.00;100743.16;7379625;19;20018;-72
2022/11/15 09:39:34;;;;;;;;;;;;;;;9.80;100.00;100747.50;7380582;19;20082;-72
2022/11/15 09:42:26;;;;;;;12.25;6.40;;;;;;;9.82;100.00;100740.53;7379028;19;19919;-72
2022/11/15 09:45:24;;;;;;;15.85;6.07;;;;;;;9.85;100.00;100740.59;7380298;19;20477;-74
2022/11/15 09:48:15;;;;;;;12.05;5.72;;;;;;;9.86;100.00;100733.59;7380534;19;20018;-72
2022/11/15 09:50:51;;;;;;;12.00;4.95;;;;;;;9.93;100.00;100743.31;7383137;19;20015;-72
2022/11/15 09:53:27;;;;;;;12.82;5.80;;;;;;;9.97;100.00;100727.66;7377008;19;20017;-72
2022/11/15 09:56:22;;;;;;;12.02;5.43;;;;;;;10.04;100.00;100731.25;7377383;19;20018;-73
2022/11/15 09:59:00;;;;;;;12.23;5.35;;;;;;;10.09;100.00;100716.47;7379461;19;20014;-73
2022/11/15 10:01:43;;;;;;;10.75;4.90;;;;;;;10.14;100.00;100710.44;7378022;19;20014;-73
2022/11/15 10:04:13;;;;;;;8.73;4.40;;;;;;;10.18;100.00;100702.59;7382351;19;20006;-73
2022/11/15 10:06:50;;;;;;;9.48;4.28;;;;;;;10.26;100.00;100714.09;7380432;19;20003;-73
2022/11/15 10:09:26;;;;;;;9.75;4.63;;;;;;;10.14;100.00;100713.06;7378298;19;20046;-73
2022/11/15 10:11:58;;;;;;;12.30;4.63;;;;;;;10.24;100.00;100702.72;7376892;19;20315;-73
2022/11/15 10:14:39;;;;;;;10.63;4.45;;;;;;;10.27;100.00;100713.25;7380326;19;20038;-74
2022/11/15 10:17:28;;;;;;;8.93;3.95;;;;;;;10.32;100.00;100708.94;7382040;19;20011;-74
2022/11/15 10:20:10;;;;;;;9.43;4.35;;;;;;;10.32;100.00;100706.31;7379485;19;20029;-73
2022/11/15 10:22:49;;;;;;;12.05;4.82;;;;;;;10.37;100.00;100709.88;7376152;19;20025;-73
2022/11/15 10:25:24;;;;;;;10.95;4.53;;;;;;;10.45;100.00;100692.47;7377866;19;20042;-73
2022/11/15 10:28:03;;;;;;;13.23;4.22;;;;;;;10.57;100.00;100695.22;7376145;19;20099;-72
2022/11/15 10:30:36;;;;;;;13.05;4.78;;;;;;;10.66;100.00;100692.69;7375401;19;20045;-73
2022/11/15 10:33:38;;;;;;;10.95;4.50;;;;;;;10.69;100.00;100669.13;7379969;19;20010;-72
2022/11/15 10:36:28;;;;;;;15.63;4.32;;;;;;;10.72;100.00;100660.41;7377739;19;20018;-72
2022/11/15 10:39:01;;;;;;;12.95;4.90;;;;;;;10.70;100.00;100657.75;7377471;19;20010;-74
2022/11/15 10:41:43;;;;;;;10.73;4.03;;;;;;;10.75;100.00;100655.19;7379052;19;20010;-72
2022/11/15 10:44:36;;;;;;;13.10;4.80;;;;;;;10.71;100.00;100649.03;7379871;19;20043;-72
2022/11/15 10:47:30;;;;;;;8.32;4.18;;;;;;;10.62;100.00;100675.16;7376574;19;20023;-72
2022/11/15 10:50:34;;;;;;;12.68;4.35;;;;;;;10.65;100.00;100648.09;7378386;19;20046;-72
2022/11/15 10:53:15;;;;;;;10.02;3.90;;;;;;;10.59;100.00;100659.41;7376496;19;20535;-72
2022/11/15 10:55:50;;;;;;;11.80;4.47;;;;;;;10.64;100.00;100655.09;7379355;19;20015;-72
2022/11/15 10:58:34;;;;;;;8.00;3.65;;;;;;;10.62;100.00;100645.44;7374587;19;20029;-73
2022/11/15 11:01:18;;;;;;;10.38;4.32;;;;;;;10.61;100.00;100647.19;7378957;19;20371;-72
2022/11/15 11:04:06;;;;;;;8.45;3.60;;;;;;;10.76;100.00;100646.44;7378107;19;20117;-72
2022/11/15 11:06:59;;;;;;;8.40;3.78;;;;;;;10.73;100.00;100635.94;7376823;19;20022;-72
2022/11/15 11:10:08;;;;;;;7.57;3.67;;;;;;;10.76;100.00;100631.59;7378406;19;20017;-72
2022/11/15 11:13:15;;;;;;;11.15;3.42;;;;;;;10.95;100.00;100616.00;7379423;19;20018;-72
2022/11/15 11:15:59;;;;;;;9.32;3.38;;;;;;;11.00;100.00;100615.19;7377108;19;20062;-72
2022/11/15 11:18:56;;;;;;;7.72;3.30;;;;;;;11.04;100.00;100602.97;7378587;19;20015;-72
2022/11/15 11:21:49;;;;;;;8.00;3.17;;;;;;;11.05;100.00;100596.84;7380103;19;20015;-72
2022/11/15 11:24:40;;;;;;;9.40;3.13;;;;;;;11.13;100.00;100585.53;7377021;19;20018;-72
2022/11/15 11:27:27;;;;;;;6.55;3.22;;;;;;;11.13;100.00;100590.78;7374837;19;20493;-72
2022/11/15 11:30:13;;;;;;;7.32;3.63;;;;;;;11.17;100.00;100580.31;7378165;19;20017;-72
2022/11/15 11:33:12;;;;;;;9.98;2.90;;;;;;;11.18;100.00;100582.06;7375539;19;20011;-71
2022/11/15 11:36:06;;;;;;;7.82;2.78;;;;;;;11.21;100.00;100592.59;7377286;19;20043;-73
2022/11/15 11:38:50;;;;;;;7.82;2.83;;;;;;;11.19;100.00;100574.19;7376400;19;20466;-73
2022/11/15 11:41:45;;;;;;;7.20;2.85;;;;;;;11.24;100.00;100569.88;7381401;19;20705;-72
2022/11/15 11:44:42;;;;;;;5.15;2.58;;;;;;;11.30;100.00;100567.28;7385214;19;20010;-73
2022/11/15 11:47:20;;;;;;;8.73;3.25;;;;;;;11.31;100.00;100550.66;7384799;19;20037;-73
2022/11/15 11:49:54;;;;;;;7.55;2.55;;;;;;;11.27;100.00;100561.13;7386731;19;20082;-73
2022/11/15 11:52:34;;;;;;;7.90;2.75;;;;;;;11.29;100.00;100541.88;7377679;19;20055;-74
2022/11/15 11:55:17;;;;;;;9.98;2.90;;;;;;;11.33;100.00;100550.66;7384747;19;20015;-74
2022/11/15 11:58:03;;;;;;;9.18;2.83;;;;;;;11.39;100.00;100530.56;7384053;19;20038;-74
2022/11/15 12:00:44;;;;;;;8.23;3.83;;;;;;;11.60;100.00;100537.63;7386206;19;20042;-73
2022/11/15 12:03:22;;;;;;;8.93;2.70;;;;;;;11.72;100.00;100523.66;7380248;19;20014;-73
2022/11/15 12:05:56;;;;;;;5.38;2.40;;;;;;;11.76;100.00;100514.94;7383418;19;20018;-74
2022/11/15 12:08:34;;;;;;;8.13;2.58;;;;;;;11.72;100.00;100502.66;7383072;19;20002;-72
2022/11/15 12:11:14;;;;;;;5.75;2.45;;;;;;;11.88;100.00;100499.22;7384279;19;20006;-72
2022/11/15 12:13:50;;;;;;;6.10;2.22;;;;;;;11.95;100.00;100497.50;7381432;19;20022;-73
2022/11/15 12:16:26;;;;;;;7.68;2.67;;;;;;;12.08;100.00;100500.16;7384077;19;20011;-73
2022/11/15 12:19:03;;;;;;;5.50;2.50;;;;;;;12.13;100.00;100484.38;7381486;19;20052;-73
2022/11/15 12:21:39;;;;;;;8.27;2.47;;;;;;;12.22;100.00;100487.03;7384160;19;20447;-73
2022/11/15 12:24:15;;;;;;;8.32;2.88;;;;;;;11.96;100.00;100491.38;7382782;19;20006;-73
2022/11/15 12:26:51;;;;;;;5.93;2.22;;;;;;;12.04;100.00;100485.25;7385376;19;20010;-72
2022/11/15 12:29:34;;;;;;;7.57;2.30;;;;;;;12.09;100.00;100482.63;7384155;19;20021;-73
2022/11/15 12:32:04;;;;;;;8.18;2.28;;;;;;;12.16;100.00;100467.75;7383708;19;20043;-73
2022/11/15 12:34:42;;;;;;;5.70;2.70;;;;;;;12.11;100.00;100471.25;7381513;19;20082;-73
2022/11/15 12:37:48;;;;;;;6.97;2.00;;;;;;;12.23;100.00;100469.50;7380965;19;20040;-73
2022/11/15 12:40:30;;;;;;;6.95;2.35;;;;;;;12.18;100.00;100458.09;7382736;19;20226;-73
2022/11/15 12:43:19;;;;;;;4.75;2.10;;;;;;;12.16;100.00;100451.97;7382089;19;20054;-74
2022/11/15 12:45:51;;;;;;;6.57;2.30;;;;;;;12.14;100.00;100457.22;7380601;19;20007;-74
2022/11/15 12:52:12;;;;;;;7.35;2.45;;;;;;;12.10;100.00;100437.94;7376946;19;20021;-73
2022/11/15 12:55:24;;;;;;;4.88;2.30;;;;;;;11.97;100.00;100436.19;7378952;19;20018;-73
2022/11/15 13:30:04;;;;;;;3.40;1.60;;;;;;;11.72;100.00;100384.44;7375359;19;20527;-73
2022/11/15 13:32:48;;;;;;;4.68;1.80;;;;;;;11.64;100.00;100376.53;7365495;19;20050;-80
2022/11/15 13:35:24;;;;;;;3.63;1.60;;;;;;;11.67;100.00;100373.94;7376885;19;20109;-83
2022/11/15 13:37:55;;;;;;;14.02;2.75;;;;;;;11.62;100.00;100365.16;7371436;19;20022;-81
2022/11/15 13:40:30;;;;;;;6.35;1.75;;;;;;;11.62;100.00;100377.41;7364911;19;20021;-81
2022/11/15 13:43:16;;;;;;;8.02;2.72;;;;;;;11.59;100.00;100359.03;7369720;19;20015;-81
2022/11/15 13:45:46;;;;;;;4.63;1.73;;;;;;;11.55;100.00;100362.53;7372011;19;20053;-80